sensor_id;sensor_type;location;lat;lon;timestamp;pressure;altitude;pressure_sealevel;temperature;humidity
53719;BME280;39616;48.872;9.390;2023-01-27T00:01:44;98599.91;;;-2.46;100.00
53719;BME280;39616;48.872;9.390;2023-01-27T00:04:14;98593.78;;;-2.53;100.00
53719;BME280;39616;48.872;9.390;2023-01-27T00:06:45;98591.53;;;-2.56;100.00
53719;BME280;39616;48.872;9.390;2023-01-27T00:09:15;98595.19;;;-2.64;100.00
53719;BME280;39616;48.872;9.390;2023-01-27T00:11:45;98590.50;;;-2.55;100.00
53719;BME280;39616;48.872;9.390;2023-01-27T00:14:34;98588.25;;;-2.58;100.00
53719;BME280;39616;48.872;9.390;2023-01-27T00:17:04;98587.22;;;-2.84;100.00
53719;BME280;39616;48.872;9.390;2023-01-27T00:19:35;98593.34;;;-2.70;100.00
53719;BME280;39616;48.872;9.390;2023-01-27T00:22:05;98593.97;;;-2.68;100.00
53719;BME280;39616;48.872;9.390;2023-01-27T00:24:54;98598.25;;;-2.60;100.00
53719;BME280;39616;48.872;9.390;2023-01-27T00:27:24;98592.94;;;-2.67;100.00
53719;BME280;39616;48.872;9.390;2023-01-27T00:29:56;98590.06;;;-2.65;100.00
53719;BME280;39616;48.872;9.390;2023-01-27T00:32:26;98587.03;;;-2.62;100.00
53719;BME280;39616;48.872;9.390;2023-01-27T00:35:16;98583.75;;;-2.58;100.00
53719;BME280;39616;48.872;9.390;2023-01-27T00:37:46;98587.44;;;-2.52;100.00
53719;BME280;39616;48.872;9.390;2023-01-27T00:40:17;98590.91;;;-2.58;100.00
53719;BME280;39616;48.872;9.390;2023-01-27T00:42:47;98595.78;;;-2.62;100.00
53719;BME280;39616;48.872;9.390;2023-01-27T00:45:17;98591.09;;;-2.67;100.00
53719;BME280;39616;48.872;9.390;2023-01-27T00:48:06;98583.75;;;-2.58;100.00
53719;BME280;39616;48.872;9.390;2023-01-27T00:50:37;98587.63;;;-2.67;100.00
53719;BME280;39616;48.872;9.390;2023-01-27T00:53:07;98591.91;;;-2.66;100.00
53719;BME280;39616;48.872;9.390;2023-01-27T00:55:38;98590.50;;;-2.62;100.00
53719;BME280;39616;48.872;9.390;2023-01-27T00:58:08;98595.22;;;-2.57;100.00
53719;BME280;39616;48.872;9.390;2023-01-27T01:00:38;98597.44;;;-2.61;100.00
53719;BME280;39616;48.872;9.390;2023-01-27T01:03:08;98587.66;;;-2.60;100.00
53719;BME280;39616;48.872;9.390;2023-01-27T01:05:39;98595.59;;;-2.67;100.00
53719;BME280;39616;48.872;9.390;2023-01-27T01:08:10;98594.38;;;-2.64;100.00
53719;BME280;39616;48.872;9.390;2023-01-27T01:10:40;98596.41;;;-2.73;100.00
53719;BME280;39616;48.872;9.390;2023-01-27T01:13:10;98594.78;;;-2.68;100.00
53719;BME280;39616;48.872;9.390;2023-01-27T01:15:41;98603.97;;;-2.77;100.00
53719;BME280;39616;48.872;9.390;2023-01-27T01:18:11;98605.19;;;-2.73;100.00
53719;BME280;39616;48.872;9.390;2023-01-27T01:20:43;98611.94;;;-2.70;100.00
53719;BME280;39616;48.872;9.390;2023-01-27T01:23:14;98610.50;;;-2.73;100.00
53719;BME280;39616;48.872;9.390;2023-01-27T01:25:54;98611.53;;;-2.67;100.00
53719;BME280;39616;48.872;9.390;2023-01-27T01:28:25;98612.56;;;-2.75;100.00
53719;BME280;39616;48.872;9.390;2023-01-27T01:30:55;98612.97;;;-2.78;100.00
53719;BME280;39616;48.872;9.390;2023-01-27T01:33:26;98606.84;;;-2.72;100.00
53719;BME280;39616;48.872;9.390;2023-01-27T01:35:56;98610.31;;;-2.71;100.00
53719;BME280;39616;48.872;9.390;2023-01-27T01:38:26;98602.53;;;-2.73;100.00
53719;BME280;39616;48.872;9.390;2023-01-27T01:40:57;98599.47;;;-2.63;100.00
53719;BME280;39616;48.872;9.390;2023-01-27T01:43:27;98601.94;;;-2.61;100.00
53719;BME280;39616;48.872;9.390;2023-01-27T01:45:58;98595.22;;;-2.57;100.00
53719;BME280;39616;48.872;9.390;2023-01-27T01:51:09;98590.50;;;-2.55;100.00
53719;BME280;39616;48.872;9.390;2023-01-27T01:56:22;98589.25;;;-2.66;100.00
53719;BME280;39616;48.872;9.390;2023-01-27T01:58:56;98587.25;;;-2.64;100.00
53719;BME280;39616;48.872;9.390;2023-01-27T02:01:30;98582.34;;;-2.54;100.00
53719;BME280;39616;48.872;9.390;2023-01-27T02:04:04;98582.34;;;-2.60;100.00
53719;BME280;39616;48.872;9.390;2023-01-27T02:06:41;98580.72;;;-2.61;100.00
53719;BME280;39616;48.872;9.390;2023-01-27T02:09:15;98584.78;;;-2.59;100.00
53719;BME280;39616;48.872;9.390;2023-01-27T02:11:46;98571.72;;;-2.74;100.00
53719;BME280;39616;48.872;9.390;2023-01-27T02:14:16;98576.41;;;-2.69;100.00
53719;BME280;39616;48.872;9.390;2023-01-27T02:16:47;98564.78;;;-2.61;100.00
53719;BME280;39616;48.872;9.390;2023-01-27T02:22:25;98568.25;;;-2.61;100.00
53719;BME280;39616;48.872;9.390;2023-01-27T02:25:05;98566.63;;;-2.69;100.00
53719;BME280;39616;48.872;9.390;2023-01-27T02:27:40;98573.75;;;-2.62;100.00
53719;BME280;39616;48.872;9.390;2023-01-27T02:30:11;98569.06;;;-2.67;100.00
53719;BME280;39616;48.872;9.390;2023-01-27T02:32:41;98567.44;;;-2.68;100.00
53719;BME280;39616;48.872;9.390;2023-01-27T02:35:14;98576.81;;;-2.65;100.00
53719;BME280;39616;48.872;9.390;2023-01-27T02:37:47;98572.34;;;-2.65;100.00
53719;BME280;39616;48.872;9.390;2023-01-27T02:40:19;98575.81;;;-2.64;100.00
53719;BME280;39616;48.872;9.390;2023-01-27T02:42:54;98570.69;;;-2.66;100.00
53719;BME280;39616;48.872;9.390;2023-01-27T02:45:25;98568.44;;;-2.62;100.00
53719;BME280;39616;48.872;9.390;2023-01-27T02:47:56;98576.81;;;-2.65;100.00
53719;BME280;39616;48.872;9.390;2023-01-27T02:50:26;98570.69;;;-2.66;100.00
53719;BME280;39616;48.872;9.390;2023-01-27T02:52:56;98560.09;;;-2.79;100.00
53719;BME280;39616;48.872;9.390;2023-01-27T02:55:27;98569.69;;;-2.72;100.00
53719;BME280;39616;48.872;9.390;2023-01-27T02:57:57;98564.38;;;-2.65;100.00
53719;BME280;39616;48.872;9.390;2023-01-27T03:00:27;98565.19;;;-2.64;100.00
53719;BME280;39616;48.872;9.390;2023-01-27T03:02:58;98550.66;;;-2.55;100.00
53719;BME280;39616;48.872;9.390;2023-01-27T03:05:28;98562.09;;;-2.55;100.00
53719;BME280;39616;48.872;9.390;2023-01-27T03:07:58;98559.44;;;-2.55;100.00
53719;BME280;39616;48.872;9.390;2023-01-27T03:10:29;98560.47;;;-2.56;100.00
53719;BME280;39616;48.872;9.390;2023-01-27T03:12:59;98559.25;;;-2.60;100.00
53719;BME280;39616;48.872;9.390;2023-01-27T03:15:29;98559.25;;;-2.60;100.00
53719;BME280;39616;48.872;9.390;2023-01-27T03:18:18;98573.34;;;-2.59;100.00
53719;BME280;39616;48.872;9.390;2023-01-27T03:20:48;98573.16;;;-2.64;100.00
53719;BME280;39616;48.872;9.390;2023-01-27T03:23:19;98581.13;;;-2.64;100.00
53719;BME280;39616;48.872;9.390;2023-01-27T03:25:49;98579.06;;;-2.69;100.00
53719;BME280;39616;48.872;9.390;2023-01-27T03:28:19;98577.25;;;-2.69;100.00
53719;BME280;39616;48.872;9.390;2023-01-27T03:30:50;98578.88;;;-2.68;100.00
53719;BME280;39616;48.872;9.390;2023-01-27T03:33:20;98581.09;;;-2.71;100.00
53719;BME280;39616;48.872;9.390;2023-01-27T03:35:50;98568.44;;;-2.69;100.00
53719;BME280;39616;48.872;9.390;2023-01-27T03:38:39;98563.34;;;-2.71;100.00
53719;BME280;39616;48.872;9.390;2023-01-27T03:41:29;98566.63;;;-2.75;100.00
53719;BME280;39616;48.872;9.390;2023-01-27T03:44:17;98569.06;;;-2.67;100.00
53719;BME280;39616;48.872;9.390;2023-01-27T03:47:06;98580.47;;;-2.73;100.00
53719;BME280;39616;48.872;9.390;2023-01-27T03:49:36;98570.28;;;-2.70;100.00
53719;BME280;39616;48.872;9.390;2023-01-27T03:52:07;98573.97;;;-2.71;100.00
53719;BME280;39616;48.872;9.390;2023-01-27T03:54:37;98573.97;;;-2.64;100.00
53719;BME280;39616;48.872;9.390;2023-01-27T03:57:07;98573.97;;;-2.64;100.00
53719;BME280;39616;48.872;9.390;2023-01-27T03:59:38;98576.63;;;-2.57;100.00
53719;BME280;39616;48.872;9.390;2023-01-27T04:02:08;98577.22;;;-2.55;100.00
53719;BME280;39616;48.872;9.390;2023-01-27T04:04:57;98573.97;;;-2.57;100.00
53719;BME280;39616;48.872;9.390;2023-01-27T04:07:46;98581.31;;;-2.53;100.00
53719;BME280;39616;48.872;9.390;2023-01-27T04:10:16;98572.94;;;-2.56;100.00
53719;BME280;39616;48.872;9.390;2023-01-27T04:12:47;98582.53;;;-2.55;100.00
53719;BME280;39616;48.872;9.390;2023-01-27T04:15:17;98588.25;;;-2.45;100.00
53719;BME280;39616;48.872;9.390;2023-01-27T04:17:48;98581.91;;;-2.51;100.00
53719;BME280;39616;48.872;9.390;2023-01-27T04:20:18;98583.56;;;-2.50;100.00
53719;BME280;39616;48.872;9.390;2023-01-27T04:22:49;98585.19;;;-2.55;100.00
53719;BME280;39616;48.872;9.390;2023-01-27T04:25:19;98587.22;;;-2.51;100.00
53719;BME280;39616;48.872;9.390;2023-01-27T04:27:49;98591.09;;;-2.40;100.00
53719;BME280;39616;48.872;9.390;2023-01-27T04:30:20;98578.22;;;-2.43;100.00
53719;BME280;39616;48.872;9.390;2023-01-27T04:32:50;98582.53;;;-2.49;100.00
53719;BME280;39616;48.872;9.390;2023-01-27T04:35:20;98586.22;;;-2.50;100.00
53719;BME280;39616;48.872;9.390;2023-01-27T04:37:51;98585.81;;;-2.53;100.00
53719;BME280;39616;48.872;9.390;2023-01-27T04:40:21;98578.66;;;-2.46;100.00
53719;BME280;39616;48.872;9.390;2023-01-27T04:42:52;98559.03;;;-2.38;100.00
53719;BME280;39616;48.872;9.390;2023-01-27T04:45:23;98582.72;;;-2.44;100.00
53719;BME280;39616;48.872;9.390;2023-01-27T04:47:53;98593.38;;;-2.50;100.00
53719;BME280;39616;48.872;9.390;2023-01-27T04:50:24;98577.84;;;-2.47;100.00
53719;BME280;39616;48.872;9.390;2023-01-27T04:52:54;98590.28;;;-2.47;100.00
53719;BME280;39616;48.872;9.390;2023-01-27T04:55:25;98591.94;;;-2.46;100.00
53719;BME280;39616;48.872;9.390;2023-01-27T04:57:55;98593.56;;;-2.45;100.00
53719;BME280;39616;48.872;9.390;2023-01-27T05:00:25;98590.69;;;-2.37;100.00
53719;BME280;39616;48.872;9.390;2023-01-27T05:02:56;98584.56;;;-2.37;100.00
53719;BME280;39616;48.872;9.390;2023-01-27T05:05:26;98579.06;;;-2.42;100.00
53719;BME280;39616;48.872;9.390;2023-01-27T05:08:04;98593.56;;;-2.38;100.00
53719;BME280;39616;48.872;9.390;2023-01-27T05:10:35;98603.97;;;-2.37;100.00
53719;BME280;39616;48.872;9.390;2023-01-27T05:13:05;98598.88;;;-2.38;100.00
53719;BME280;39616;48.872;9.390;2023-01-27T05:15:36;98601.31;;;-2.44;100.00
53719;BME280;39616;48.872;9.390;2023-01-27T05:18:06;98603.78;;;-2.42;100.00
53719;BME280;39616;48.872;9.390;2023-01-27T05:20:36;98595.19;;;-2.37;100.00
53719;BME280;39616;48.872;9.390;2023-01-27T05:23:07;98602.97;;;-2.42;100.00
53719;BME280;39616;48.872;9.390;2023-01-27T05:25:56;98600.50;;;-2.44;100.00
53719;BME280;39616;48.872;9.390;2023-01-27T05:28:26;98605.59;;;-2.49;100.00
53719;BME280;39616;48.872;9.390;2023-01-27T05:31:23;98608.25;;;-2.42;100.00
53719;BME280;39616;48.872;9.390;2023-01-27T05:33:55;98607.44;;;-2.43;100.00
53719;BME280;39616;48.872;9.390;2023-01-27T05:36:26;98607.66;;;-2.45;100.00
53719;BME280;39616;48.872;9.390;2023-01-27T05:38:57;98606.03;;;-2.46;100.00
53719;BME280;39616;48.872;9.390;2023-01-27T05:41:29;98616.41;;;-2.44;100.00
53719;BME280;39616;48.872;9.390;2023-01-27T05:44:02;98616.41;;;-2.37;100.00
53719;BME280;39616;48.872;9.390;2023-01-27T05:46:37;98615.22;;;-2.41;100.00
53719;BME280;39616;48.872;9.390;2023-01-27T05:49:08;98611.50;;;-2.40;100.00
53719;BME280;39616;48.872;9.390;2023-01-27T05:51:39;98615.78;;;-2.39;100.00
53719;BME280;39616;48.872;9.390;2023-01-27T05:54:09;98612.97;;;-2.38;100.00
53719;BME280;39616;48.872;9.390;2023-01-27T05:56:40;98617.88;;;-2.35;100.00
53719;BME280;39616;48.872;9.390;2023-01-27T05:59:11;98619.09;;;-2.31;100.00
53719;BME280;39616;48.872;9.390;2023-01-27T06:01:41;98616.00;;;-2.28;100.00
53719;BME280;39616;48.872;9.390;2023-01-27T06:04:11;98607.22;;;-2.28;100.00
53719;BME280;39616;48.872;9.390;2023-01-27T06:06:42;98617.00;;;-2.29;100.00
53719;BME280;39616;48.872;9.390;2023-01-27T06:09:12;98607.59;;;-2.25;100.00
53719;BME280;39616;48.872;9.390;2023-01-27T06:11:42;98614.16;;;-2.34;100.00
53719;BME280;39616;48.872;9.390;2023-01-27T06:14:13;98613.13;;;-2.33;100.00
53719;BME280;39616;48.872;9.390;2023-01-27T06:16:44;98619.50;;;-2.34;100.00
53719;BME280;39616;48.872;9.390;2023-01-27T06:19:16;98616.00;;;-2.28;100.00
53719;BME280;39616;48.872;9.390;2023-01-27T06:21:46;98622.31;;;-2.29;100.00
53719;BME280;39616;48.872;9.390;2023-01-27T06:24:16;98617.22;;;-2.24;100.00
53719;BME280;39616;48.872;9.390;2023-01-27T06:26:47;98621.75;;;-2.31;100.00
53719;BME280;39616;48.872;9.390;2023-01-27T06:29:17;98621.94;;;-2.39;100.00
53719;BME280;39616;48.872;9.390;2023-01-27T06:31:47;98627.28;;;-2.39;100.00
53719;BME280;39616;48.872;9.390;2023-01-27T06:34:18;98619.72;;;-2.42;100.00
53719;BME280;39616;48.872;9.390;2023-01-27T06:36:48;98635.44;;;-2.34;100.00
53719;BME280;39616;48.872;9.390;2023-01-27T06:39:18;98628.28;;;-2.33;100.00
53719;BME280;39616;48.872;9.390;2023-01-27T06:41:48;98641.38;;;-2.32;100.00
53719;BME280;39616;48.872;9.390;2023-01-27T06:44:19;98638.88;;;-2.20;100.00
53719;BME280;39616;48.872;9.390;2023-01-27T06:46:49;98643.19;;;-2.26;100.00
53719;BME280;39616;48.872;9.390;2023-01-27T06:49:20;98652.78;;;-2.38;100.00
53719;BME280;39616;48.872;9.390;2023-01-27T06:51:50;98663.22;;;-2.30;100.00
53719;BME280;39616;48.872;9.390;2023-01-27T06:54:20;98656.88;;;-2.29;100.00
53719;BME280;39616;48.872;9.390;2023-01-27T06:56:51;98669.34;;;-2.23;100.00
53719;BME280;39616;48.872;9.390;2023-01-27T06:59:21;98674.47;;;-2.28;100.00
53719;BME280;39616;48.872;9.390;2023-01-27T07:01:51;98676.31;;;-2.28;100.00
53719;BME280;39616;48.872;9.390;2023-01-27T07:04:22;98674.88;;;-2.31;100.00
53719;BME280;39616;48.872;9.390;2023-01-27T07:06:52;98681.63;;;-2.35;100.00
53719;BME280;39616;48.872;9.390;2023-01-27T07:09:22;98678.94;;;-2.41;100.00
53719;BME280;39616;48.872;9.390;2023-01-27T07:11:52;98677.91;;;-2.47;100.00
53719;BME280;39616;48.872;9.390;2023-01-27T07:14:23;98680.16;;;-2.51;100.00
53719;BME280;39616;48.872;9.390;2023-01-27T07:16:53;98669.53;;;-2.44;100.00
53719;BME280;39616;48.872;9.390;2023-01-27T07:19:23;98691.81;;;-2.38;100.00
53719;BME280;39616;48.872;9.390;2023-01-27T07:21:54;98694.69;;;-2.33;100.00
53719;BME280;39616;48.872;9.390;2023-01-27T07:24:24;98698.97;;;-2.32;100.00
53719;BME280;39616;48.872;9.390;2023-01-27T07:26:54;98700.81;;;-2.33;100.00
53719;BME280;39616;48.872;9.390;2023-01-27T07:29:24;98705.50;;;-2.41;100.00
53719;BME280;39616;48.872;9.390;2023-01-27T07:31:55;98705.91;;;-2.45;100.00
53719;BME280;39616;48.872;9.390;2023-01-27T07:34:25;98703.03;;;-2.43;100.00
53719;BME280;39616;48.872;9.390;2023-01-27T07:36:55;98714.91;;;-2.39;100.00
53719;BME280;39616;48.872;9.390;2023-01-27T07:39:26;98708.56;;;-2.51;100.00
53719;BME280;39616;48.872;9.390;2023-01-27T07:41:56;98721.66;;;-2.50;100.00
53719;BME280;39616;48.872;9.390;2023-01-27T07:44:28;98717.78;;;-2.34;100.00
53719;BME280;39616;48.872;9.390;2023-01-27T07:46:58;98718.38;;;-2.38;100.00
53719;BME280;39616;48.872;9.390;2023-01-27T07:49:29;98712.66;;;-2.35;100.00
53719;BME280;39616;48.872;9.390;2023-01-27T07:51:59;98715.13;;;-2.34;100.00
53719;BME280;39616;48.872;9.390;2023-01-27T07:54:29;98713.66;;;-2.36;100.00
53719;BME280;39616;48.872;9.390;2023-01-27T07:57:00;98730.03;;;-2.33;100.00
53719;BME280;39616;48.872;9.390;2023-01-27T07:59:30;98726.16;;;-2.30;100.00
53719;BME280;39616;48.872;9.390;2023-01-27T08:02:00;98728.59;;;-2.29;100.00
53719;BME280;39616;48.872;9.390;2023-01-27T08:04:31;98726.56;;;-2.27;100.00
53719;BME280;39616;48.872;9.390;2023-01-27T08:07:01;98732.09;;;-2.28;100.00
53719;BME280;39616;48.872;9.390;2023-01-27T08:09:31;98732.91;;;-2.28;100.00
53719;BME280;39616;48.872;9.390;2023-01-27T08:12:02;98729.84;;;-2.31;100.00
53719;BME280;39616;48.872;9.390;2023-01-27T08:14:32;98730.44;;;-2.29;100.00
53719;BME280;39616;48.872;9.390;2023-01-27T08:17:03;98733.72;;;-2.34;100.00
53719;BME280;39616;48.872;9.390;2023-01-27T08:19:33;98737.19;;;-2.27;100.00
53719;BME280;39616;48.872;9.390;2023-01-27T08:22:03;98734.53;;;-2.20;100.00
53719;BME280;39616;48.872;9.390;2023-01-27T08:24:33;98738.00;;;-2.26;100.00
53719;BME280;39616;48.872;9.390;2023-01-27T08:27:04;98737.19;;;-2.27;100.00
53719;BME280;39616;48.872;9.390;2023-01-27T08:29:34;98742.09;;;-2.30;100.00
53719;BME280;39616;48.872;9.390;2023-01-27T08:32:04;98752.53;;;-2.35;100.00
53719;BME280;39616;48.872;9.390;2023-01-27T08:34:36;98750.25;;;-2.38;100.00
53719;BME280;39616;48.872;9.390;2023-01-27T08:37:06;98746.78;;;-2.39;100.00
53719;BME280;39616;48.872;9.390;2023-01-27T08:39:36;98748.19;;;-2.43;100.00
53719;BME280;39616;48.872;9.390;2023-01-27T08:42:07;98741.88;;;-2.42;100.00
53719;BME280;39616;48.872;9.390;2023-01-27T08:44:37;98759.63;;;-2.36;100.00
53719;BME280;39616;48.872;9.390;2023-01-27T08:47:07;98758.25;;;-2.32;100.00
53719;BME280;39616;48.872;9.390;2023-01-27T08:49:38;98758.66;;;-2.28;100.00
53719;BME280;39616;48.872;9.390;2023-01-27T08:52:08;98768.44;;;-2.22;100.00
53719;BME280;39616;48.872;9.390;2023-01-27T08:54:38;98757.44;;;-2.19;100.00
53719;BME280;39616;48.872;9.390;2023-01-27T08:57:09;98756.41;;;-2.18;100.00
53719;BME280;39616;48.872;9.390;2023-01-27T08:59:39;98752.75;;;-2.17;100.00
53719;BME280;39616;48.872;9.390;2023-01-27T09:02:12;98749.22;;;-2.17;100.00
53719;BME280;39616;48.872;9.390;2023-01-27T09:04:42;98737.38;;;-2.22;100.00
53719;BME280;39616;48.872;9.390;2023-01-27T09:07:14;98741.69;;;-2.07;100.00
53719;BME280;39616;48.872;9.390;2023-01-27T09:09:48;98752.72;;;-1.97;100.00
53719;BME280;39616;48.872;9.390;2023-01-27T09:12:18;98752.72;;;-1.97;100.00
53719;BME280;39616;48.872;9.390;2023-01-27T09:14:49;98750.88;;;-1.83;100.00
53719;BME280;39616;48.872;9.390;2023-01-27T09:17:19;98741.47;;;-1.73;100.00
53719;BME280;39616;48.872;9.390;2023-01-27T09:19:49;98745.13;;;-1.74;100.00
53719;BME280;39616;48.872;9.390;2023-01-27T09:22:20;98753.13;;;-1.80;100.00
53719;BME280;39616;48.872;9.390;2023-01-27T09:24:50;98747.19;;;-1.76;100.00
53719;BME280;39616;48.872;9.390;2023-01-27T09:27:21;98746.34;;;-1.70;99.05
53719;BME280;39616;48.872;9.390;2023-01-27T09:29:51;98748.19;;;-1.70;98.77
53719;BME280;39616;48.872;9.390;2023-01-27T09:32:21;98752.50;;;-1.76;98.66
53719;BME280;39616;48.872;9.390;2023-01-27T09:34:51;98755.13;;;-1.62;99.56
53719;BME280;39616;48.872;9.390;2023-01-27T09:37:22;98753.28;;;-1.55;98.98
53719;BME280;39616;48.872;9.390;2023-01-27T09:39:56;98756.56;;;-1.53;98.92
53719;BME280;39616;48.872;9.390;2023-01-27T09:42:50;98756.16;;;-1.63;98.52
53719;BME280;39616;48.872;9.390;2023-01-27T09:45:38;98756.81;;;-1.75;98.90
53719;BME280;39616;48.872;9.390;2023-01-27T10:00:28;98753.09;;;-1.60;96.65
53719;BME280;39616;48.872;9.390;2023-01-27T10:06:43;98748.75;;;-1.35;96.22
53719;BME280;39616;48.872;9.390;2023-01-27T10:14:38;98762.69;;;-1.39;94.94
53719;BME280;39616;48.872;9.390;2023-01-27T10:20:13;98773.28;;;-1.33;94.20
53719;BME280;39616;48.872;9.390;2023-01-27T10:23:01;98751.81;;;-1.31;92.66
53719;BME280;39616;48.872;9.390;2023-01-27T10:28:12;98759.09;;;-1.07;94.20
53719;BME280;39616;48.872;9.390;2023-01-27T10:33:24;98760.06;;;-0.94;93.00
53719;BME280;39616;48.872;9.390;2023-01-27T10:36:03;98769.50;;;-0.92;92.82
53719;BME280;39616;48.872;9.390;2023-01-27T10:38:40;98768.31;;;-1.03;91.00
53719;BME280;39616;48.872;9.390;2023-01-27T10:44:23;98772.28;;;-1.25;90.16
53719;BME280;39616;48.872;9.390;2023-01-27T10:47:19;98768.72;;;-1.06;90.78
53719;BME280;39616;48.872;9.390;2023-01-27T10:50:02;98766.22;;;-1.01;92.08
53719;BME280;39616;48.872;9.390;2023-01-27T10:52:44;98760.38;;;-1.29;90.70
53719;BME280;39616;48.872;9.390;2023-01-27T10:55:36;98773.50;;;-1.34;91.55
53719;BME280;39616;48.872;9.390;2023-01-27T10:58:30;98775.34;;;-1.28;93.76
53719;BME280;39616;48.872;9.390;2023-01-27T11:01:07;98770.97;;;-1.09;94.03
53719;BME280;39616;48.872;9.390;2023-01-27T11:04:40;98762.59;;;-1.13;92.58
53719;BME280;39616;48.872;9.390;2023-01-27T11:06:41;98759.94;;;-1.19;92.39
53719;BME280;39616;48.872;9.390;2023-01-27T11:09:22;98762.44;;;-1.25;92.58
53719;BME280;39616;48.872;9.390;2023-01-27T11:11:57;98752.78;;;-1.19;93.58
53719;BME280;39616;48.872;9.390;2023-01-27T11:14:31;98757.91;;;-1.17;92.96
53719;BME280;39616;48.872;9.390;2023-01-27T11:17:31;98758.66;;;-1.04;93.12
53719;BME280;39616;48.872;9.390;2023-01-27T11:22:58;98762.63;;;-1.26;94.42
53719;BME280;39616;48.872;9.390;2023-01-27T11:34:20;98747.94;;;-0.84;93.53
53719;BME280;39616;48.872;9.390;2023-01-27T11:36:54;98749.78;;;-0.84;93.17
53719;BME280;39616;48.872;9.390;2023-01-27T11:39:26;98753.28;;;-0.84;93.84
53719;BME280;39616;48.872;9.390;2023-01-27T11:42:00;98751.66;;;-0.91;92.90
53719;BME280;39616;48.872;9.390;2023-01-27T11:44:32;98753.69;;;-0.87;94.31
53719;BME280;39616;48.872;9.390;2023-01-27T11:47:05;98749.56;;;-0.83;93.79
53719;BME280;39616;48.872;9.390;2023-01-27T11:49:41;98738.69;;;-0.81;92.70
53719;BME280;39616;48.872;9.390;2023-01-27T11:52:15;98738.75;;;-0.88;93.67
53719;BME280;39616;48.872;9.390;2023-01-27T11:54:58;98744.00;;;-1.19;94.07
53719;BME280;39616;48.872;9.390;2023-01-27T11:57:34;98734.50;;;-1.02;95.54
53719;BME280;39616;48.872;9.390;2023-01-27T12:00:41;98732.50;;;-1.07;96.94
53719;BME280;39616;48.872;9.390;2023-01-27T12:03:23;98742.50;;;-1.09;94.97
53719;BME280;39616;48.872;9.390;2023-01-27T12:06:01;98733.25;;;-1.00;96.18
53719;BME280;39616;48.872;9.390;2023-01-27T12:08:38;98722.97;;;-0.89;95.85
53719;BME280;39616;48.872;9.390;2023-01-27T12:11:22;98728.91;;;-0.87;95.61
53719;BME280;39616;48.872;9.390;2023-01-27T12:14:02;98733.97;;;-0.79;96.99
53719;BME280;39616;48.872;9.390;2023-01-27T12:16:47;98738.94;;;-0.89;94.75
53719;BME280;39616;48.872;9.390;2023-01-27T12:19:33;98731.25;;;-1.11;96.01
53719;BME280;39616;48.872;9.390;2023-01-27T12:24:54;98722.44;;;-1.05;97.93
53719;BME280;39616;48.872;9.390;2023-01-27T12:27:29;98717.88;;;-0.91;100.00
53719;BME280;39616;48.872;9.390;2023-01-27T12:30:03;98715.66;;;-1.07;98.15
53719;BME280;39616;48.872;9.390;2023-01-27T12:32:40;98713.97;;;-0.88;98.69
53719;BME280;39616;48.872;9.390;2023-01-27T12:35:23;98719.66;;;-0.85;97.79
53719;BME280;39616;48.872;9.390;2023-01-27T12:37:59;98717.53;;;-1.08;97.84
53719;BME280;39616;48.872;9.390;2023-01-27T12:40:31;98704.97;;;-0.94;100.00
53719;BME280;39616;48.872;9.390;2023-01-27T12:43:10;98717.66;;;-0.96;99.15
53719;BME280;39616;48.872;9.390;2023-01-27T12:45:42;98718.53;;;-1.02;99.61
53719;BME280;39616;48.872;9.390;2023-01-27T12:48:16;98718.72;;;-1.04;99.46
53719;BME280;39616;48.872;9.390;2023-01-27T12:56:10;98703.97;;;-1.00;100.00
53719;BME280;39616;48.872;9.390;2023-01-27T12:59:00;98711.38;;;-1.08;99.96
53719;BME280;39616;48.872;9.390;2023-01-27T13:01:34;98704.84;;;-1.06;99.94
53719;BME280;39616;48.872;9.390;2023-01-27T13:04:16;98702.47;;;-0.89;100.00
53719;BME280;39616;48.872;9.390;2023-01-27T13:06:50;98711.94;;;-0.93;99.35
53719;BME280;39616;48.872;9.390;2023-01-27T13:09:26;98700.88;;;-0.97;99.18
53719;BME280;39616;48.872;9.390;2023-01-27T13:12:29;98707.63;;;-0.94;97.82
53719;BME280;39616;48.872;9.390;2023-01-27T13:15:19;98711.94;;;-0.93;98.43
53719;BME280;39616;48.872;9.390;2023-01-27T13:17:50;98720.78;;;-0.99;98.91
53719;BME280;39616;48.872;9.390;2023-01-27T13:20:31;98712.19;;;-1.08;100.00
53719;BME280;39616;48.872;9.390;2023-01-27T13:23:29;98718.69;;;-0.97;99.52
53719;BME280;39616;48.872;9.390;2023-01-27T13:28:48;98711.25;;;-1.20;100.00
53719;BME280;39616;48.872;9.390;2023-01-27T13:34:27;98714.88;;;-1.08;100.00
53719;BME280;39616;48.872;9.390;2023-01-27T13:37:23;98726.53;;;-1.09;99.69
53719;BME280;39616;48.872;9.390;2023-01-27T13:42:55;98733.72;;;-1.09;100.00
53719;BME280;39616;48.872;9.390;2023-01-27T13:45:40;98732.44;;;-1.00;98.96
53719;BME280;39616;48.872;9.390;2023-01-27T13:48:31;98731.25;;;-1.11;99.96
53719;BME280;39616;48.872;9.390;2023-01-27T13:51:09;98740.66;;;-1.02;98.87
53719;BME280;39616;48.872;9.390;2023-01-27T13:53:42;98740.47;;;-1.07;99.39
53719;BME280;39616;48.872;9.390;2023-01-27T13:56:39;98742.28;;;-1.07;98.45
53719;BME280;39616;48.872;9.390;2023-01-27T14:05:27;98754.63;;;-1.19;99.43
53719;BME280;39616;48.872;9.390;2023-01-27T14:08:34;98764.22;;;-1.12;98.98
53719;BME280;39616;48.872;9.390;2023-01-27T14:11:11;98768.16;;;-1.28;97.61
53719;BME280;39616;48.872;9.390;2023-01-27T14:24:51;98756.66;;;-1.15;96.75
53719;BME280;39616;48.872;9.390;2023-01-27T14:27:37;98762.22;;;-1.23;96.10
53719;BME280;39616;48.872;9.390;2023-01-27T14:35:50;98761.16;;;-1.09;95.40
53719;BME280;39616;48.872;9.390;2023-01-27T14:38:46;98765.91;;;-1.17;96.05
53719;BME280;39616;48.872;9.390;2023-01-27T14:44:58;98780.22;;;-1.18;96.08
53719;BME280;39616;48.872;9.390;2023-01-27T14:47:16;98768.56;;;-1.17;96.22
53719;BME280;39616;48.872;9.390;2023-01-27T14:50:18;98758.75;;;-1.24;96.00
53719;BME280;39616;48.872;9.390;2023-01-27T14:56:05;98769.56;;;-1.18;94.91
53719;BME280;39616;48.872;9.390;2023-01-27T14:58:44;98764.66;;;-1.22;95.28
53719;BME280;39616;48.872;9.390;2023-01-27T15:01:43;98769.75;;;-1.07;95.89
53719;BME280;39616;48.872;9.390;2023-01-27T15:04:22;98765.25;;;-1.06;94.83
53719;BME280;39616;48.872;9.390;2023-01-27T15:07:18;98766.91;;;-1.18;94.36
53719;BME280;39616;48.872;9.390;2023-01-27T15:10:22;98771.81;;;-1.15;95.52